sensor_id;sensor_type;location;lat;lon;timestamp;P1;durP1;ratioP1;P2;durP2;ratioP2
40022;SDS011;25713;-35.352;149.036;2022-09-14T00:02:04;2.30;;;0.50;;
40022;SDS011;25713;-35.352;149.036;2022-09-14T00:04:33;1.02;;;0.57;;
40022;SDS011;25713;-35.352;149.036;2022-09-14T00:07:03;0.43;;;0.43;;
40022;SDS011;25713;-35.352;149.036;2022-09-14T00:09:32;0.85;;;0.40;;
40022;SDS011;25713;-35.352;149.036;2022-09-14T00:12:02;0.65;;;0.50;;
40022;SDS011;25713;-35.352;149.036;2022-09-14T00:14:33;2.58;;;0.57;;
40022;SDS011;25713;-35.352;149.036;2022-09-14T00:17:02;1.38;;;0.52;;
40022;SDS011;25713;-35.352;149.036;2022-09-14T00:19:32;1.95;;;0.43;;
40022;SDS011;25713;-35.352;149.036;2022-09-14T00:22:01;1.50;;;0.50;;
40022;SDS011;25713;-35.352;149.036;2022-09-14T00:24:31;1.80;;;0.40;;
40022;SDS011;25713;-35.352;149.036;2022-09-14T00:27:00;0.68;;;0.50;;
40022;SDS011;25713;-35.352;149.036;2022-09-14T00:29:30;1.58;;;0.50;;
40022;SDS011;25713;-35.352;149.036;2022-09-14T00:32:01;1.90;;;0.88;;
40022;SDS011;25713;-35.352;149.036;2022-09-14T00:34:31;1.55;;;0.50;;
40022;SDS011;25713;-35.352;149.036;2022-09-14T00:37:00;0.52;;;0.30;;
40022;SDS011;25713;-35.352;149.036;2022-09-14T00:39:30;0.90;;;0.40;;
40022;SDS011;25713;-35.352;149.036;2022-09-14T00:41:59;0.77;;;0.30;;
40022;SDS011;25713;-35.352;149.036;2022-09-14T00:47:33;1.67;;;0.50;;
40022;SDS011;25713;-35.352;149.036;2022-09-14T00:50:03;1.42;;;0.63;;
40022;SDS011;25713;-35.352;149.036;2022-09-14T00:52:33;0.75;;;0.50;;
40022;SDS011;25713;-35.352;149.036;2022-09-14T00:55:05;0.73;;;0.45;;
40022;SDS011;25713;-35.352;149.036;2022-09-14T00:57:37;1.27;;;0.43;;
40022;SDS011;25713;-35.352;149.036;2022-09-14T01:00:11;0.60;;;0.38;;
40022;SDS011;25713;-35.352;149.036;2022-09-14T01:02:43;1.42;;;0.50;;
40022;SDS011;25713;-35.352;149.036;2022-09-14T01:05:12;0.85;;;0.22;;
40022;SDS011;25713;-35.352;149.036;2022-09-14T01:07:55;0.65;;;0.40;;
40022;SDS011;25713;-35.352;149.036;2022-09-14T01:10:43;1.90;;;0.38;;
40022;SDS011;25713;-35.352;149.036;2022-09-14T01:13:30;1.65;;;0.40;;
40022;SDS011;25713;-35.352;149.036;2022-09-14T01:16:09;1.60;;;0.35;;
40022;SDS011;25713;-35.352;149.036;2022-09-14T01:18:44;1.88;;;0.60;;
40022;SDS011;25713;-35.352;149.036;2022-09-14T01:21:18;0.45;;;0.35;;
40022;SDS011;25713;-35.352;149.036;2022-09-14T01:23:53;1.45;;;0.50;;
40022;SDS011;25713;-35.352;149.036;2022-09-14T01:26:31;2.55;;;0.30;;
40022;SDS011;25713;-35.352;149.036;2022-09-14T01:29:13;0.40;;;0.30;;
40022;SDS011;25713;-35.352;149.036;2022-09-14T01:31:47;0.38;;;0.30;;
40022;SDS011;25713;-35.352;149.036;2022-09-14T01:34:23;0.65;;;0.30;;
40022;SDS011;25713;-35.352;149.036;2022-09-14T01:36:58;0.93;;;0.30;;
40022;SDS011;25713;-35.352;149.036;2022-09-14T01:39:31;1.05;;;0.35;;
40022;SDS011;25713;-35.352;149.036;2022-09-14T01:42:02;1.38;;;0.55;;
40022;SDS011;25713;-35.352;149.036;2022-09-14T01:44:35;0.30;;;0.30;;
40022;SDS011;25713;-35.352;149.036;2022-09-14T01:47:08;1.45;;;0.40;;
40022;SDS011;25713;-35.352;149.036;2022-09-14T01:49:42;1.25;;;0.35;;
40022;SDS011;25713;-35.352;149.036;2022-09-14T01:52:14;0.30;;;0.28;;
40022;SDS011;25713;-35.352;149.036;2022-09-14T01:54:46;1.07;;;0.50;;
40022;SDS011;25713;-35.352;149.036;2022-09-14T01:57:21;0.90;;;0.40;;
40022;SDS011;25713;-35.352;149.036;2022-09-14T01:59:55;0.70;;;0.50;;
40022;SDS011;25713;-35.352;149.036;2022-09-14T02:02:29;1.50;;;0.40;;
40022;SDS011;25713;-35.352;149.036;2022-09-14T02:05:02;2.10;;;0.30;;
40022;SDS011;25713;-35.352;149.036;2022-09-14T02:07:34;0.85;;;0.80;;
40022;SDS011;25713;-35.352;149.036;2022-09-14T02:10:05;2.50;;;0.40;;
40022;SDS011;25713;-35.352;149.036;2022-09-14T02:12:37;0.90;;;0.40;;
40022;SDS011;25713;-35.352;149.036;2022-09-14T02:15:10;0.32;;;0.30;;
40022;SDS011;25713;-35.352;149.036;2022-09-14T02:17:41;0.32;;;0.30;;
40022;SDS011;25713;-35.352;149.036;2022-09-14T02:20:12;0.50;;;0.30;;
40022;SDS011;25713;-35.352;149.036;2022-09-14T02:22:47;0.90;;;0.45;;
40022;SDS011;25713;-35.352;149.036;2022-09-14T02:25:18;0.82;;;0.55;;
40022;SDS011;25713;-35.352;149.036;2022-09-14T02:27:48;1.05;;;0.40;;
40022;SDS011;25713;-35.352;149.036;2022-09-14T02:30:19;0.30;;;0.30;;
40022;SDS011;25713;-35.352;149.036;2022-09-14T02:32:52;0.52;;;0.30;;
40022;SDS011;25713;-35.352;149.036;2022-09-14T02:35:30;1.98;;;0.52;;
40022;SDS011;25713;-35.352;149.036;2022-09-14T02:38:05;0.65;;;0.40;;
40022;SDS011;25713;-35.352;149.036;2022-09-14T02:40:45;1.38;;;0.45;;
40022;SDS011;25713;-35.352;149.036;2022-09-14T02:43:24;1.60;;;0.32;;
40022;SDS011;25713;-35.352;149.036;2022-09-14T02:46:03;2.40;;;0.55;;
40022;SDS011;25713;-35.352;149.036;2022-09-14T02:48:41;1.00;;;0.40;;
40022;SDS011;25713;-35.352;149.036;2022-09-14T02:51:17;1.15;;;0.50;;
40022;SDS011;25713;-35.352;149.036;2022-09-14T02:53:54;0.52;;;0.30;;
40022;SDS011;25713;-35.352;149.036;2022-09-14T02:56:30;0.43;;;0.30;;
40022;SDS011;25713;-35.352;149.036;2022-09-14T02:59:01;0.38;;;0.38;;
40022;SDS011;25713;-35.352;149.036;2022-09-14T03:01:33;0.65;;;0.40;;
40022;SDS011;25713;-35.352;149.036;2022-09-14T03:04:03;0.68;;;0.30;;
40022;SDS011;25713;-35.352;149.036;2022-09-14T03:06:32;1.90;;;0.22;;
40022;SDS011;25713;-35.352;149.036;2022-09-14T03:09:01;0.75;;;0.30;;
40022;SDS011;25713;-35.352;149.036;2022-09-14T03:11:31;0.35;;;0.30;;
40022;SDS011;25713;-35.352;149.036;2022-09-14T03:14:00;0.65;;;0.30;;
40022;SDS011;25713;-35.352;149.036;2022-09-14T03:16:30;1.25;;;0.30;;
40022;SDS011;25713;-35.352;149.036;2022-09-14T03:19:01;1.15;;;0.32;;
40022;SDS011;25713;-35.352;149.036;2022-09-14T03:21:30;1.30;;;0.40;;
40022;SDS011;25713;-35.352;149.036;2022-09-14T03:24:00;0.30;;;0.30;;
40022;SDS011;25713;-35.352;149.036;2022-09-14T03:26:29;2.45;;;0.40;;
40022;SDS011;25713;-35.352;149.036;2022-09-14T03:28:59;1.42;;;0.50;;
40022;SDS011;25713;-35.352;149.036;2022-09-14T03:31:28;2.55;;;0.35;;
40022;SDS011;25713;-35.352;149.036;2022-09-14T03:34:00;1.15;;;0.30;;
40022;SDS011;25713;-35.352;149.036;2022-09-14T03:36:30;0.30;;;0.30;;
40022;SDS011;25713;-35.352;149.036;2022-09-14T03:39:00;0.20;;;0.20;;
40022;SDS011;25713;-35.352;149.036;2022-09-14T03:41:29;0.30;;;0.30;;
40022;SDS011;25713;-35.352;149.036;2022-09-14T03:43:58;0.38;;;0.30;;
40022;SDS011;25713;-35.352;149.036;2022-09-14T03:46:28;0.70;;;0.38;;
40022;SDS011;25713;-35.352;149.036;2022-09-14T03:48:59;0.30;;;0.30;;
40022;SDS011;25713;-35.352;149.036;2022-09-14T03:51:29;0.77;;;0.25;;
40022;SDS011;25713;-35.352;149.036;2022-09-14T03:54:00;1.65;;;0.40;;
40022;SDS011;25713;-35.352;149.036;2022-09-14T03:56:29;1.40;;;0.30;;
40022;SDS011;25713;-35.352;149.036;2022-09-14T03:58:58;0.95;;;0.30;;
40022;SDS011;25713;-35.352;149.036;2022-09-14T04:01:27;0.25;;;0.20;;
40022;SDS011;25713;-35.352;149.036;2022-09-14T04:03:57;0.98;;;0.30;;
40022;SDS011;25713;-35.352;149.036;2022-09-14T04:06:28;0.30;;;0.30;;
40022;SDS011;25713;-35.352;149.036;2022-09-14T04:08:58;0.50;;;0.50;;
40022;SDS011;25713;-35.352;149.036;2022-09-14T04:11:27;0.30;;;0.30;;
40022;SDS011;25713;-35.352;149.036;2022-09-14T04:13:59;0.75;;;0.40;;
40022;SDS011;25713;-35.352;149.036;2022-09-14T04:18:58;0.80;;;0.77;;
40022;SDS011;25713;-35.352;149.036;2022-09-14T04:21:29;0.57;;;0.30;;
40022;SDS011;25713;-35.352;149.036;2022-09-14T04:23:59;0.77;;;0.40;;
40022;SDS011;25713;-35.352;149.036;2022-09-14T04:26:29;0.32;;;0.30;;
40022;SDS011;25713;-35.352;149.036;2022-09-14T04:28:59;0.75;;;0.40;;
40022;SDS011;25713;-35.352;149.036;2022-09-14T04:31:28;0.50;;;0.30;;
40022;SDS011;25713;-35.352;149.036;2022-09-14T04:33:58;0.63;;;0.40;;
40022;SDS011;25713;-35.352;149.036;2022-09-14T04:36:29;0.63;;;0.38;;
40022;SDS011;25713;-35.352;149.036;2022-09-14T04:38:59;0.52;;;0.40;;
40022;SDS011;25713;-35.352;149.036;2022-09-14T04:41:29;4.43;;;0.30;;
40022;SDS011;25713;-35.352;149.036;2022-09-14T04:43:59;0.30;;;0.30;;
40022;SDS011;25713;-35.352;149.036;2022-09-14T04:46:29;1.65;;;0.40;;
40022;SDS011;25713;-35.352;149.036;2022-09-14T04:48:59;0.75;;;0.40;;
40022;SDS011;25713;-35.352;149.036;2022-09-14T04:51:31;0.32;;;0.30;;
40022;SDS011;25713;-35.352;149.036;2022-09-14T04:54:01;0.45;;;0.40;;
40022;SDS011;25713;-35.352;149.036;2022-09-14T04:56:32;0.40;;;0.30;;
40022;SDS011;25713;-35.352;149.036;2022-09-14T04:59:03;1.10;;;0.30;;
40022;SDS011;25713;-35.352;149.036;2022-09-14T05:01:33;1.08;;;0.43;;
40022;SDS011;25713;-35.352;149.036;2022-09-14T05:04:06;0.40;;;0.40;;
40022;SDS011;25713;-35.352;149.036;2022-09-14T05:06:36;2.15;;;0.50;;
40022;SDS011;25713;-35.352;149.036;2022-09-14T05:09:08;1.25;;;0.32;;
40022;SDS011;25713;-35.352;149.036;2022-09-14T05:11:39;2.38;;;0.40;;
40022;SDS011;25713;-35.352;149.036;2022-09-14T05:14:09;0.50;;;0.40;;
40022;SDS011;25713;-35.352;149.036;2022-09-14T05:16:39;0.55;;;0.40;;
40022;SDS011;25713;-35.352;149.036;2022-09-14T05:19:13;1.30;;;0.38;;
40022;SDS011;25713;-35.352;149.036;2022-09-14T05:21:44;0.50;;;0.40;;
40022;SDS011;25713;-35.352;149.036;2022-09-14T05:24:14;0.60;;;0.30;;
40022;SDS011;25713;-35.352;149.036;2022-09-14T05:26:44;0.40;;;0.40;;
40022;SDS011;25713;-35.352;149.036;2022-09-14T05:29:14;0.50;;;0.40;;
40022;SDS011;25713;-35.352;149.036;2022-09-14T05:31:44;0.20;;;0.20;;
40022;SDS011;25713;-35.352;149.036;2022-09-14T05:34:17;0.60;;;0.40;;
40022;SDS011;25713;-35.352;149.036;2022-09-14T05:36:46;0.30;;;0.30;;
40022;SDS011;25713;-35.352;149.036;2022-09-14T05:39:16;0.68;;;0.40;;
40022;SDS011;25713;-35.352;149.036;2022-09-14T05:41:47;0.35;;;0.30;;
40022;SDS011;25713;-35.352;149.036;2022-09-14T05:44:17;0.93;;;0.43;;
40022;SDS011;25713;-35.352;149.036;2022-09-14T05:46:46;0.43;;;0.22;;
40022;SDS011;25713;-35.352;149.036;2022-09-14T05:49:17;1.08;;;0.68;;
40022;SDS011;25713;-35.352;149.036;2022-09-14T05:51:47;1.85;;;0.45;;
40022;SDS011;25713;-35.352;149.036;2022-09-14T05:54:16;2.50;;;0.40;;
40022;SDS011;25713;-35.352;149.036;2022-09-14T05:56:45;0.43;;;0.40;;
40022;SDS011;25713;-35.352;149.036;2022-09-14T05:59:15;1.85;;;0.40;;
40022;SDS011;25713;-35.352;149.036;2022-09-14T06:01:44;1.13;;;0.50;;
40022;SDS011;25713;-35.352;149.036;2022-09-14T06:04:13;0.40;;;0.40;;
40022;SDS011;25713;-35.352;149.036;2022-09-14T06:06:45;0.52;;;0.45;;
40022;SDS011;25713;-35.352;149.036;2022-09-14T06:09:15;0.63;;;0.40;;
40022;SDS011;25713;-35.352;149.036;2022-09-14T06:11:44;0.90;;;0.50;;
40022;SDS011;25713;-35.352;149.036;2022-09-14T06:14:13;0.75;;;0.40;;
40022;SDS011;25713;-35.352;149.036;2022-09-14T06:16:42;0.90;;;0.40;;
40022;SDS011;25713;-35.352;149.036;2022-09-14T06:19:13;1.13;;;0.35;;
40022;SDS011;25713;-35.352;149.036;2022-09-14T06:21:42;0.57;;;0.40;;
40022;SDS011;25713;-35.352;149.036;2022-09-14T06:24:14;0.40;;;0.40;;
40022;SDS011;25713;-35.352;149.036;2022-09-14T06:26:45;0.88;;;0.32;;
40022;SDS011;25713;-35.352;149.036;2022-09-14T06:29:14;0.32;;;0.30;;
40022;SDS011;25713;-35.352;149.036;2022-09-14T06:31:44;1.48;;;0.80;;
40022;SDS011;25713;-35.352;149.036;2022-09-14T06:34:13;0.30;;;0.30;;
40022;SDS011;25713;-35.352;149.036;2022-09-14T06:36:43;0.70;;;0.38;;
40022;SDS011;25713;-35.352;149.036;2022-09-14T06:39:14;0.40;;;0.30;;
40022;SDS011;25713;-35.352;149.036;2022-09-14T06:41:43;3.47;;;0.40;;
40022;SDS011;25713;-35.352;149.036;2022-09-14T06:44:19;0.85;;;0.45;;
40022;SDS011;25713;-35.352;149.036;2022-09-14T06:46:48;0.60;;;0.32;;
40022;SDS011;25713;-35.352;149.036;2022-09-14T06:49:18;0.30;;;0.30;;
40022;SDS011;25713;-35.352;149.036;2022-09-14T06:51:49;2.28;;;0.40;;
40022;SDS011;25713;-35.352;149.036;2022-09-14T06:54:18;0.93;;;0.40;;
40022;SDS011;25713;-35.352;149.036;2022-09-14T06:56:48;1.23;;;0.40;;
40022;SDS011;25713;-35.352;149.036;2022-09-14T06:59:17;0.57;;;0.40;;
40022;SDS011;25713;-35.352;149.036;2022-09-14T07:01:47;0.50;;;0.40;;
40022;SDS011;25713;-35.352;149.036;2022-09-14T07:04:16;0.40;;;0.40;;
40022;SDS011;25713;-35.352;149.036;2022-09-14T07:06:46;0.30;;;0.30;;
40022;SDS011;25713;-35.352;149.036;2022-09-14T07:11:46;0.43;;;0.40;;
40022;SDS011;25713;-35.352;149.036;2022-09-14T07:14:15;0.40;;;0.40;;
40022;SDS011;25713;-35.352;149.036;2022-09-14T07:16:45;0.30;;;0.30;;
40022;SDS011;25713;-35.352;149.036;2022-09-14T07:19:14;0.60;;;0.40;;
40022;SDS011;25713;-35.352;149.036;2022-09-14T07:21:44;0.75;;;0.30;;
40022;SDS011;25713;-35.352;149.036;2022-09-14T07:24:15;0.95;;;0.40;;
40022;SDS011;25713;-35.352;149.036;2022-09-14T07:26:44;1.13;;;0.50;;
40022;SDS011;25713;-35.352;149.036;2022-09-14T07:29:14;0.75;;;0.40;;
40022;SDS011;25713;-35.352;149.036;2022-09-14T07:31:45;0.30;;;0.30;;
40022;SDS011;25713;-35.352;149.036;2022-09-14T07:34:16;0.43;;;0.40;;
40022;SDS011;25713;-35.352;149.036;2022-09-14T07:36:45;0.68;;;0.40;;
40022;SDS011;25713;-35.352;149.036;2022-09-14T07:39:16;0.57;;;0.50;;
40022;SDS011;25713;-35.352;149.036;2022-09-14T07:41:46;1.17;;;0.50;;
40022;SDS011;25713;-35.352;149.036;2022-09-14T07:44:15;0.43;;;0.40;;
40022;SDS011;25713;-35.352;149.036;2022-09-14T07:46:45;0.65;;;0.38;;
40022;SDS011;25713;-35.352;149.036;2022-09-14T07:49:15;1.20;;;0.73;;
40022;SDS011;25713;-35.352;149.036;2022-09-14T07:51:44;0.40;;;0.40;;
40022;SDS011;25713;-35.352;149.036;2022-09-14T07:54:14;0.40;;;0.40;;
40022;SDS011;25713;-35.352;149.036;2022-09-14T07:56:46;0.40;;;0.38;;
40022;SDS011;25713;-35.352;149.036;2022-09-14T07:59:16;0.30;;;0.30;;
40022;SDS011;25713;-35.352;149.036;2022-09-14T08:01:45;0.90;;;0.50;;
40022;SDS011;25713;-35.352;149.036;2022-09-14T08:04:14;0.63;;;0.52;;
40022;SDS011;25713;-35.352;149.036;2022-09-14T08:06:43;0.77;;;0.55;;
40022;SDS011;25713;-35.352;149.036;2022-09-14T08:09:12;0.90;;;0.55;;
40022;SDS011;25713;-35.352;149.036;2022-09-14T08:11:43;0.70;;;0.55;;
40022;SDS011;25713;-35.352;149.036;2022-09-14T08:14:13;0.60;;;0.55;;
40022;SDS011;25713;-35.352;149.036;2022-09-14T08:16:42;1.10;;;0.60;;
40022;SDS011;25713;-35.352;149.036;2022-09-14T08:19:11;0.77;;;0.50;;
40022;SDS011;25713;-35.352;149.036;2022-09-14T08:21:42;0.65;;;0.50;;
40022;SDS011;25713;-35.352;149.036;2022-09-14T08:24:12;0.60;;;0.40;;
40022;SDS011;25713;-35.352;149.036;2022-09-14T08:26:44;1.63;;;0.52;;
40022;SDS011;25713;-35.352;149.036;2022-09-14T08:29:14;0.98;;;0.60;;
40022;SDS011;25713;-35.352;149.036;2022-09-14T08:31:44;0.63;;;0.50;;
40022;SDS011;25713;-35.352;149.036;2022-09-14T08:34:14;0.52;;;0.47;;
40022;SDS011;25713;-35.352;149.036;2022-09-14T08:36:44;0.93;;;0.60;;
40022;SDS011;25713;-35.352;149.036;2022-09-14T08:39:14;1.50;;;0.60;;
40022;SDS011;25713;-35.352;149.036;2022-09-14T08:41:49;0.95;;;0.70;;
40022;SDS011;25713;-35.352;149.036;2022-09-14T08:44:23;1.23;;;0.70;;
40022;SDS011;25713;-35.352;149.036;2022-09-14T08:46:57;2.25;;;0.65;;
40022;SDS011;25713;-35.352;149.036;2022-09-14T08:49:37;1.30;;;0.70;;
40022;SDS011;25713;-35.352;149.036;2022-09-14T08:52:12;2.83;;;0.82;;
40022;SDS011;25713;-35.352;149.036;2022-09-14T08:54:46;1.55;;;0.93;;
40022;SDS011;25713;-35.352;149.036;2022-09-14T08:57:21;2.83;;;1.00;;
40022;SDS011;25713;-35.352;149.036;2022-09-14T09:00:06;1.67;;;0.93;;
40022;SDS011;25713;-35.352;149.036;2022-09-14T09:05:38;1.95;;;0.95;;
40022;SDS011;25713;-35.352;149.036;2022-09-14T09:08:16;1.42;;;0.80;;
40022;SDS011;25713;-35.352;149.036;2022-09-14T09:10:51;2.00;;;0.90;;
40022;SDS011;25713;-35.352;149.036;2022-09-14T09:13:24;2.15;;;0.88;;
40022;SDS011;25713;-35.352;149.036;2022-09-14T09:15:57;1.65;;;0.90;;
40022;SDS011;25713;-35.352;149.036;2022-09-14T09:18:31;2.30;;;0.90;;
40022;SDS011;25713;-35.352;149.036;2022-09-14T09:21:06;2.10;;;0.98;;
40022;SDS011;25713;-35.352;149.036;2022-09-14T09:23:39;1.20;;;0.70;;
40022;SDS011;25713;-35.352;149.036;2022-09-14T09:26:10;0.77;;;0.70;;
40022;SDS011;25713;-35.352;149.036;2022-09-14T09:28:48;1.17;;;0.88;;
40022;SDS011;25713;-35.352;149.036;2022-09-14T09:34:13;1.52;;;1.00;;
40022;SDS011;25713;-35.352;149.036;2022-09-14T09:36:44;2.47;;;1.10;;
40022;SDS011;25713;-35.352;149.036;2022-09-14T09:39:15;1.65;;;1.08;;
40022;SDS011;25713;-35.352;149.036;2022-09-14T09:41:46;3.05;;;1.63;;
40022;SDS011;25713;-35.352;149.036;2022-09-14T09:44:22;3.38;;;1.77;;
40022;SDS011;25713;-35.352;149.036;2022-09-14T09:49:24;5.38;;;3.05;;
40022;SDS011;25713;-35.352;149.036;2022-09-14T09:51:56;5.05;;;2.78;;
40022;SDS011;25713;-35.352;149.036;2022-09-14T09:54:35;4.63;;;3.00;;
40022;SDS011;25713;-35.352;149.036;2022-09-14T09:57:18;6.57;;;3.23;;
40022;SDS011;25713;-35.352;149.036;2022-09-14T10:02:39;3.75;;;2.80;;
40022;SDS011;25713;-35.352;149.036;2022-09-14T10:05:18;5.20;;;2.90;;
40022;SDS011;25713;-35.352;149.036;2022-09-14T10:07:51;4.15;;;2.65;;
40022;SDS011;25713;-35.352;149.036;2022-09-14T10:10:23;5.53;;;2.90;;
40022;SDS011;25713;-35.352;149.036;2022-09-14T10:13:23;3.85;;;2.50;;
40022;SDS011;25713;-35.352;149.036;2022-09-14T10:16:06;4.93;;;2.58;;
40022;SDS011;25713;-35.352;149.036;2022-09-14T10:18:42;2.67;;;1.88;;
40022;SDS011;25713;-35.352;149.036;2022-09-14T10:21:13;3.35;;;2.53;;
40022;SDS011;25713;-35.352;149.036;2022-09-14T10:23:44;3.63;;;2.25;;
40022;SDS011;25713;-35.352;149.036;2022-09-14T10:26:22;4.40;;;2.50;;
40022;SDS011;25713;-35.352;149.036;2022-09-14T10:28:53;4.93;;;2.70;;
40022;SDS011;25713;-35.352;149.036;2022-09-14T10:31:44;3.95;;;2.20;;
40022;SDS011;25713;-35.352;149.036;2022-09-14T10:34:17;3.17;;;2.70;;
40022;SDS011;25713;-35.352;149.036;2022-09-14T10:36:51;2.75;;;2.00;;
40022;SDS011;25713;-35.352;149.036;2022-09-14T10:39:29;3.25;;;2.10;;
40022;SDS011;25713;-35.352;149.036;2022-09-14T10:42:06;4.53;;;2.38;;
40022;SDS011;25713;-35.352;149.036;2022-09-14T10:44:50;4.18;;;1.98;;
40022;SDS011;25713;-35.352;149.036;2022-09-14T10:47:40;3.47;;;1.80;;
40022;SDS011;25713;-35.352;149.036;2022-09-14T10:50:32;3.10;;;1.88;;
40022;SDS011;25713;-35.352;149.036;2022-09-14T10:53:18;1.83;;;1.48;;
40022;SDS011;25713;-35.352;149.036;2022-09-14T10:55:58;3.88;;;2.33;;
40022;SDS011;25713;-35.352;149.036;2022-09-14T11:01:16;3.95;;;1.77;;
40022;SDS011;25713;-35.352;149.036;2022-09-14T11:03:57;2.80;;;1.55;;
40022;SDS011;25713;-35.352;149.036;2022-09-14T11:06:40;2.97;;;1.48;;
40022;SDS011;25713;-35.352;149.036;2022-09-14T11:09:21;2.38;;;1.60;;
40022;SDS011;25713;-35.352;149.036;2022-09-14T11:11:59;2.53;;;1.60;;
40022;SDS011;25713;-35.352;149.036;2022-09-14T11:14:37;2.42;;;1.45;;
40022;SDS011;25713;-35.352;149.036;2022-09-14T11:17:21;3.42;;;1.67;;
40022;SDS011;25713;-35.352;149.036;2022-09-14T11:20:09;3.13;;;1.70;;
40022;SDS011;25713;-35.352;149.036;2022-09-14T11:22:49;2.75;;;1.63;;
40022;SDS011;25713;-35.352;149.036;2022-09-14T11:25:28;2.90;;;1.70;;
40022;SDS011;25713;-35.352;149.036;2022-09-14T11:28:04;2.67;;;1.70;;
40022;SDS011;25713;-35.352;149.036;2022-09-14T11:30:37;2.05;;;1.30;;
40022;SDS011;25713;-35.352;149.036;2022-09-14T11:35:42;2.60;;;1.25;;
40022;SDS011;25713;-35.352;149.036;2022-09-14T11:38:16;1.98;;;1.20;;
40022;SDS011;25713;-35.352;149.036;2022-09-14T11:40:48;2.00;;;1.30;;
40022;SDS011;25713;-35.352;149.036;2022-09-14T11:43:23;3.10;;;1.20;;
40022;SDS011;25713;-35.352;149.036;2022-09-14T11:45:59;1.75;;;1.17;;
40022;SDS011;25713;-35.352;149.036;2022-09-14T11:48:34;1.42;;;1.00;;
40022;SDS011;25713;-35.352;149.036;2022-09-14T11:51:11;2.80;;;1.15;;
40022;SDS011;25713;-35.352;149.036;2022-09-14T11:53:43;1.85;;;1.00;;
40022;SDS011;25713;-35.352;149.036;2022-09-14T11:56:18;2.65;;;1.00;;
40022;SDS011;25713;-35.352;149.036;2022-09-14T11:58:50;1.10;;;0.80;;
40022;SDS011;25713;-35.352;149.036;2022-09-14T12:01:29;1.67;;;0.80;;
40022;SDS011;25713;-35.352;149.036;2022-09-14T12:04:09;1.70;;;0.90;;
40022;SDS011;25713;-35.352;149.036;2022-09-14T12:06:43;1.58;;;0.80;;
40022;SDS011;25713;-35.352;149.036;2022-09-14T12:12:35;1.40;;;1.00;;
40022;SDS011;25713;-35.352;149.036;2022-09-14T12:15:18;1.52;;;0.80;;
40022;SDS011;25713;-35.352;149.036;2022-09-14T12:20:47;1.67;;;0.70;;
40022;SDS011;25713;-35.352;149.036;2022-09-14T12:23:30;2.10;;;0.90;;
40022;SDS011;25713;-35.352;149.036;2022-09-14T12:29:04;3.83;;;1.38;;
40022;SDS011;25713;-35.352;149.036;2022-09-14T12:32:02;1.48;;;0.82;;
40022;SDS011;25713;-35.352;149.036;2022-09-14T12:49:13;1.17;;;0.70;;
40022;SDS011;25713;-35.352;149.036;2022-09-14T12:51:58;1.35;;;0.80;;
40022;SDS011;25713;-35.352;149.036;2022-09-14T12:54:54;1.75;;;0.77;;
40022;SDS011;25713;-35.352;149.036;2022-09-14T12:57:36;1.65;;;0.82;;
40022;SDS011;25713;-35.352;149.036;2022-09-14T13:00:12;0.82;;;0.70;;
40022;SDS011;25713;-35.352;149.036;2022-09-14T13:05:45;1.58;;;0.70;;
40022;SDS011;25713;-35.352;149.036;2022-09-14T13:08:16;1.63;;;0.70;;
40022;SDS011;25713;-35.352;149.036;2022-09-14T13:10:50;1.00;;;0.60;;
40022;SDS011;25713;-35.352;149.036;2022-09-14T13:13:24;0.73;;;0.50;;
40022;SDS011;25713;-35.352;149.036;2022-09-14T13:15:58;1.73;;;0.80;;
40022;SDS011;25713;-35.352;149.036;2022-09-14T13:18:30;2.80;;;0.60;;
40022;SDS011;25713;-35.352;149.036;2022-09-14T13:21:01;0.63;;;0.57;;
40022;SDS011;25713;-35.352;149.036;2022-09-14T13:23:43;2.10;;;0.60;;
40022;SDS011;25713;-35.352;149.036;2022-09-14T13:26:15;3.42;;;0.70;;
40022;SDS011;25713;-35.352;149.036;2022-09-14T13:28:49;1.30;;;0.68;;
40022;SDS011;25713;-35.352;149.036;2022-09-14T13:31:21;0.98;;;0.60;;
40022;SDS011;25713;-35.352;149.036;2022-09-14T13:33:54;0.60;;;0.55;;
40022;SDS011;25713;-35.352;149.036;2022-09-14T13:36:25;0.85;;;0.63;;
40022;SDS011;25713;-35.352;149.036;2022-09-14T13:38:56;0.70;;;0.50;;
40022;SDS011;25713;-35.352;149.036;2022-09-14T13:41:27;1.15;;;0.60;;
40022;SDS011;25713;-35.352;149.036;2022-09-14T13:44:00;1.27;;;0.50;;
40022;SDS011;25713;-35.352;149.036;2022-09-14T13:46:35;0.85;;;0.60;;
40022;SDS011;25713;-35.352;149.036;2022-09-14T13:55:16;1.98;;;0.73;;
40022;SDS011;25713;-35.352;149.036;2022-09-14T14:03:36;2.13;;;1.00;;
40022;SDS011;25713;-35.352;149.036;2022-09-14T14:06:20;1.60;;;0.90;;
40022;SDS011;25713;-35.352;149.036;2022-09-14T14:08:52;3.85;;;1.20;;
40022;SDS011;25713;-35.352;149.036;2022-09-14T14:11:30;1.75;;;1.00;;
40022;SDS011;25713;-35.352;149.036;2022-09-14T14:14:17;2.92;;;0.90;;
40022;SDS011;25713;-35.352;149.036;2022-09-14T14:19:58;2.30;;;1.00;;
40022;SDS011;25713;-35.352;149.036;2022-09-14T14:22:52;3.30;;;1.08;;
40022;SDS011;25713;-35.352;149.036;2022-09-14T14:25:26;1.88;;;0.98;;
40022;SDS011;25713;-35.352;149.036;2022-09-14T14:27:58;2.55;;;1.30;;
40022;SDS011;25713;-35.352;149.036;2022-09-14T14:30:29;3.00;;;1.00;;
40022;SDS011;25713;-35.352;149.036;2022-09-14T14:33:09;2.08;;;0.77;;
40022;SDS011;25713;-35.352;149.036;2022-09-14T14:35:42;1.15;;;0.70;;
40022;SDS011;25713;-35.352;149.036;2022-09-14T14:38:13;1.40;;;0.98;;
40022;SDS011;25713;-35.352;149.036;2022-09-14T14:40:42;1.63;;;0.80;;
40022;SDS011;25713;-35.352;149.036;2022-09-14T14:43:14;0.77;;;0.60;;
40022;SDS011;25713;-35.352;149.036;2022-09-14T14:45:46;2.65;;;0.80;;
40022;SDS011;25713;-35.352;149.036;2022-09-14T14:48:22;1.27;;;0.80;;
40022;SDS011;25713;-35.352;149.036;2022-09-14T14:50:55;2.35;;;0.70;;
40022;SDS011;25713;-35.352;149.036;2022-09-14T16:05:17;1.55;;;0.70;;
40022;SDS011;25713;-35.352;149.036;2022-09-14T16:07:46;1.58;;;0.70;;
40022;SDS011;25713;-35.352;149.036;2022-09-14T16:10:19;2.42;;;0.75;;
40022;SDS011;25713;-35.352;149.036;2022-09-14T16:12:49;0.98;;;0.85;;
40022;SDS011;25713;-35.352;149.036;2022-09-14T16:15:20;2.00;;;0.80;;
40022;SDS011;25713;-35.352;149.036;2022-09-14T16:17:50;1.33;;;0.80;;
40022;SDS011;25713;-35.352;149.036;2022-09-14T16:20:22;3.05;;;0.80;;
40022;SDS011;25713;-35.352;149.036;2022-09-14T16:22:52;1.35;;;0.98;;
40022;SDS011;25713;-35.352;149.036;2022-09-14T16:25:21;1.15;;;0.77;;
40022;SDS011;25713;-35.352;149.036;2022-09-14T16:27:51;2.47;;;0.82;;
40022;SDS011;25713;-35.352;149.036;2022-09-14T16:30:20;1.05;;;0.90;;
40022;SDS011;25713;-35.352;149.036;2022-09-14T16:32:50;2.47;;;0.88;;
40022;SDS011;25713;-35.352;149.036;2022-09-14T16:35:19;2.50;;;1.58;;
40022;SDS011;25713;-35.352;149.036;2022-09-14T16:37:52;2.08;;;1.10;;
40022;SDS011;25713;-35.352;149.036;2022-09-14T16:40:21;1.40;;;0.88;;
40022;SDS011;25713;-35.352;149.036;2022-09-14T16:42:51;1.35;;;0.90;;
40022;SDS011;25713;-35.352;149.036;2022-09-14T16:45:20;1.38;;;1.05;;
40022;SDS011;25713;-35.352;149.036;2022-09-14T16:47:50;1.50;;;1.05;;
40022;SDS011;25713;-35.352;149.036;2022-09-14T16:50:20;1.40;;;1.00;;
40022;SDS011;25713;-35.352;149.036;2022-09-14T16:52:53;1.90;;;0.80;;
40022;SDS011;25713;-35.352;149.036;2022-09-14T16:55:22;1.77;;;0.90;;
40022;SDS011;25713;-35.352;149.036;2022-09-14T16:57:51;3.75;;;1.20;;
40022;SDS011;25713;-35.352;149.036;2022-09-14T17:00:21;3.05;;;1.10;;